Time;durP1;ratioP1;P1;durP2;ratioP2;P2;SDS_P1;SDS_P2;PMS_P1;PMS_P2;Temp;Humidity;BMP_temperature;BMP_pressure;BME280_temperature;BME280_humidity;BME280_pressure;Samples;Min_cycle;Max_cycle;Signal;HPM_P1;HPM_P2
2022/03/20 00:00:05;;;;;;;62.65;26.75;;;;;;;-2.36;42.02;103974.20;1848110;77;25464;-57
2022/03/20 00:02:37;;;;;;;67.10;26.20;;;;;;;-2.30;42.16;103978.70;1853020;77;26072;-57
2022/03/20 00:05:06;;;;;;;62.45;26.65;;;;;;;-2.28;42.15;103977.40;1854142;77;25799;-58
2022/03/20 00:07:34;;;;;;;75.80;28.15;;;;;;;-2.30;42.33;103983.98;1848563;77;25749;-58
2022/03/20 00:10:06;;;;;;;62.55;27.27;;;;;;;-2.38;42.64;103977.69;1843767;77;25764;-58
2022/03/20 00:12:36;;;;;;;67.82;25.65;;;;;;;-2.58;42.72;103979.53;1848427;77;25804;-58
2022/03/20 00:15:05;;;;;;;63.42;26.60;;;;;;;-2.77;42.87;103978.72;1856343;77;27439;-58
2022/03/20 00:17:32;;;;;;;68.12;27.90;;;;;;;-2.97;43.29;103977.90;1844664;76;26307;-58
2022/03/20 00:19:59;;;;;;;60.45;23.70;;;;;;;-3.13;43.65;103974.50;1842145;77;26405;-57
2022/03/20 00:22:27;;;;;;;65.70;27.05;;;;;;;-3.25;43.63;103975.14;1837968;77;25472;-57
2022/03/20 00:24:55;;;;;;;69.32;26.87;;;;;;;-3.32;43.43;103982.02;1846708;76;25681;-57
2022/03/20 00:27:22;;;;;;;58.55;27.32;;;;;;;-3.24;43.36;103982.19;1846141;77;27480;-58
2022/03/20 00:29:50;;;;;;;69.00;26.82;;;;;;;-3.16;43.31;103976.65;1839874;77;25671;-58
2022/03/20 00:32:19;;;;;;;57.60;25.23;;;;;;;-3.07;43.18;103979.88;1845344;76;25787;-57
2022/03/20 00:34:46;;;;;;;62.17;25.70;;;;;;;-3.00;43.37;103981.36;1834956;77;26155;-58
2022/03/20 00:37:13;;;;;;;63.10;26.05;;;;;;;-3.00;43.26;103977.83;1840444;77;25760;-58
2022/03/20 00:39:40;;;;;;;62.23;27.20;;;;;;;-2.95;43.36;103977.91;1845625;77;27523;-58
2022/03/20 00:42:08;;;;;;;66.87;26.57;;;;;;;-2.93;43.68;103974.48;1845777;77;25766;-57
2022/03/20 00:44:35;;;;;;;63.70;26.52;;;;;;;-2.93;43.82;103979.75;1840751;77;25779;-58
2022/03/20 00:47:01;;;;;;;67.35;28.90;;;;;;;-2.93;43.68;103982.39;1842829;77;25543;-58
2022/03/20 00:49:30;;;;;;;68.60;25.35;;;;;;;-2.95;43.81;103978.83;1845348;76;25696;-58
2022/03/20 00:51:57;;;;;;;63.70;25.57;;;;;;;-2.99;44.06;103978.29;1842096;77;27481;-58
2022/03/20 00:54:24;;;;;;;55.83;23.65;;;;;;;-3.08;44.53;103983.37;1844724;77;25756;-58
2022/03/20 00:56:50;;;;;;;56.23;25.20;;;;;;;-3.15;45.56;103975.80;1836295;77;25759;-59
2022/03/20 00:59:18;;;;;;;56.45;24.92;;;;;;;-3.19;45.47;103976.16;1840805;77;26304;-58
2022/03/20 01:01:45;;;;;;;57.88;25.32;;;;;;;-3.24;45.81;103978.23;1845421;77;25474;-59
2022/03/20 01:04:13;;;;;;;57.03;24.82;;;;;;;-3.28;46.16;103975.97;1847405;77;27475;-59
2022/03/20 01:06:40;;;;;;;54.73;24.32;;;;;;;-3.27;46.56;103977.72;1846686;77;25763;-58
2022/03/20 01:09:07;;;;;;;53.78;24.67;;;;;;;-3.31;46.80;103971.95;1841146;76;25818;-59
2022/03/20 01:11:35;;;;;;;59.30;22.20;;;;;;;-3.33;46.61;103968.37;1844623;77;26197;-58
2022/03/20 01:14:02;;;;;;;65.22;23.30;;;;;;;-3.30;46.29;103970.65;1843719;77;25449;-58
2022/03/20 01:16:28;;;;;;;51.48;23.47;;;;;;;-3.23;46.56;103973.44;1842274;77;28404;-58
2022/03/20 01:18:55;;;;;;;68.28;24.90;;;;;;;-3.22;46.64;103965.97;1852109;76;25506;-58
2022/03/20 01:21:23;;;;;;;50.30;23.83;;;;;;;-3.20;46.51;103971.75;1848703;77;25709;-58
2022/03/20 01:23:50;;;;;;;63.00;25.12;;;;;;;-3.22;47.18;103964.23;1842084;77;25485;-58
2022/03/20 01:26:16;;;;;;;60.45;25.65;;;;;;;-3.26;46.39;103961.06;1848046;77;25697;-58
2022/03/20 01:28:43;;;;;;;57.23;23.75;;;;;;;-3.23;46.54;103969.05;1846591;77;27527;-58
2022/03/20 01:31:10;;;;;;;59.65;23.92;;;;;;;-3.29;46.56;103966.29;1842529;77;25784;-59
2022/03/20 01:33:37;;;;;;;64.25;24.60;;;;;;;-3.28;46.85;103966.75;1849416;77;25813;-58
2022/03/20 01:36:05;;;;;;;63.38;24.52;;;;;;;-3.26;46.48;103966.33;1847730;77;25796;-58
2022/03/20 01:38:32;;;;;;;54.42;24.47;;;;;;;-3.23;46.29;103965.53;1843995;77;26510;-58
2022/03/20 01:41:03;;;;;;;57.40;26.15;;;;;;;-3.18;46.21;103961.23;1850456;77;27478;-58
2022/03/20 01:43:27;;;;;;;62.85;25.08;;;;;;;-3.16;46.04;103972.25;1849938;77;25680;-57
2022/03/20 01:45:55;;;;;;;66.85;24.70;;;;;;;-3.13;45.78;103958.70;1846775;77;25476;-57
2022/03/20 01:48:22;;;;;;;60.30;25.75;;;;;;;-3.12;45.61;103958.72;1844860;77;25701;-57
2022/03/20 01:50:48;;;;;;;60.78;25.35;;;;;;;-3.09;45.49;103958.79;1853587;77;25926;-57
2022/03/20 01:53:19;;;;;;;58.73;23.73;;;;;;;-3.05;45.37;103953.16;1846222;77;27454;-58
2022/03/20 01:55:46;;;;;;;66.95;26.10;;;;;;;-3.05;45.43;103964.56;1846259;77;25452;-57
2022/03/20 01:58:16;;;;;;;67.58;24.45;;;;;;;-3.02;45.24;103967.71;1844262;77;25720;-57
2022/03/20 02:00:44;;;;;;;65.57;24.90;;;;;;;-3.02;45.36;103959.37;1851654;77;26099;-57
2022/03/20 02:03:10;;;;;;;65.72;25.68;;;;;;;-2.97;45.88;103960.77;1846027;77;25750;-58
2022/03/20 02:05:38;;;;;;;55.98;25.17;;;;;;;-2.96;45.61;103954.65;1854119;77;28474;-57
2022/03/20 02:08:06;;;;;;;72.22;26.20;;;;;;;-2.94;45.72;103955.58;1848355;77;25708;-57
2022/03/20 02:10:37;;;;;;;63.73;26.00;;;;;;;-2.90;45.57;103957.39;1854203;77;25767;-57
2022/03/20 02:13:06;;;;;;;57.37;24.90;;;;;;;-2.92;45.34;103964.41;1844677;77;26189;-58
2022/03/20 02:15:34;;;;;;;70.10;29.87;;;;;;;-2.95;45.21;103960.80;1846686;77;25788;-58
2022/03/20 02:18:01;;;;;;;57.08;26.05;;;;;;;-2.94;45.28;103954.26;1853718;77;27686;-58
2022/03/20 02:20:29;;;;;;;61.25;25.55;;;;;;;-2.90;45.24;103944.22;1853769;77;25769;-58
2022/03/20 02:22:57;;;;;;;63.75;25.35;;;;;;;-2.87;45.03;103960.09;1846735;77;26217;-58
2022/03/20 02:25:24;;;;;;;63.68;24.95;;;;;;;-2.85;44.83;103969.34;1847977;77;26185;-57
2022/03/20 02:27:53;;;;;;;56.37;26.10;;;;;;;-2.85;44.70;103963.66;1850667;77;25811;-58
2022/03/20 02:30:22;;;;;;;61.55;25.48;;;;;;;-2.86;44.70;103960.97;1851329;77;27870;-58
2022/03/20 02:32:52;;;;;;;67.67;25.77;;;;;;;-2.88;44.63;103955.69;1848503;77;25808;-57
2022/03/20 02:35:20;;;;;;;65.08;26.60;;;;;;;-2.87;44.56;103957.91;1848770;77;25760;-58
2022/03/20 02:37:50;;;;;;;61.85;25.72;;;;;;;-2.87;44.44;103954.83;1853747;77;25554;-57
2022/03/20 02:40:21;;;;;;;68.00;27.00;;;;;;;-2.92;44.35;103954.28;1846017;77;25701;-57
2022/03/20 02:42:53;;;;;;;58.63;25.23;;;;;;;-2.96;44.29;103950.70;1848116;77;28293;-57
2022/03/20 02:45:23;;;;;;;59.15;23.83;;;;;;;-2.95;44.42;103956.84;1847397;77;25705;-57
2022/03/20 02:47:51;;;;;;;58.00;22.85;;;;;;;-2.93;44.33;103953.41;1847745;77;25766;-57
2022/03/20 02:50:27;;;;;;;58.73;23.60;;;;;;;-2.88;44.38;103954.37;1844666;77;25707;-57
2022/03/20 02:53:11;;;;;;;54.38;23.73;;;;;;;-2.84;44.38;103956.22;1851248;77;25649;-57
2022/03/20 02:55:37;;;;;;;58.95;24.43;;;;;;;-2.83;44.29;103951.82;1850562;77;27508;-58
2022/03/20 02:58:10;;;;;;;59.98;23.47;;;;;;;-2.78;44.30;103950.59;1842947;77;25859;-58
2022/03/20 03:00:40;;;;;;;47.20;22.80;;;;;;;-2.77;44.98;103949.73;1851147;77;25776;-58
2022/03/20 03:03:11;;;;;;;54.23;24.30;;;;;;;-2.77;44.70;103962.91;1847606;77;25775;-58
2022/03/20 03:05:39;;;;;;;61.25;23.73;;;;;;;-2.84;45.44;103951.36;1848173;77;26174;-58
2022/03/20 03:11:01;;;;;;;65.37;25.85;;;;;;;-2.88;46.40;103950.41;1845416;77;25714;-60
2022/03/20 03:13:35;;;;;;;52.33;23.47;;;;;;;-2.85;46.31;103956.16;1854248;77;25490;-58
2022/03/20 03:16:09;;;;;;;58.63;24.10;;;;;;;-2.90;46.47;103956.08;1846967;77;26086;-58
2022/03/20 03:18:38;;;;;;;53.50;22.30;;;;;;;-2.95;46.66;103953.80;1845723;76;25930;-58
2022/03/20 03:21:11;;;;;;;59.60;23.47;;;;;;;-2.97;46.63;103951.55;1848488;77;27408;-58
2022/03/20 03:23:39;;;;;;;59.58;23.85;;;;;;;-2.99;46.69;103956.80;1853406;77;25783;-57
2022/03/20 03:26:07;;;;;;;54.35;21.55;;;;;;;-3.00;46.94;103960.70;1846537;77;25843;-58
2022/03/20 03:28:35;;;;;;;59.23;23.83;;;;;;;-3.07;46.11;103957.49;1847974;77;26207;-59
2022/03/20 03:31:05;;;;;;;60.25;21.93;;;;;;;-3.13;45.98;103952.11;1842047;77;25823;-58
2022/03/20 03:33:35;;;;;;;51.55;22.00;;;;;;;-3.15;45.88;103950.77;1852874;77;28231;-58
2022/03/20 03:36:02;;;;;;;48.95;22.37;;;;;;;-3.16;45.95;103951.19;1846501;77;25944;-58
2022/03/20 03:38:34;;;;;;;54.08;22.35;;;;;;;-3.22;45.68;103955.02;1851312;77;25795;-58
2022/03/20 03:41:00;;;;;;;54.73;23.40;;;;;;;-3.24;45.35;103951.91;1848826;77;25747;-58
2022/03/20 03:43:28;;;;;;;57.43;25.88;;;;;;;-3.26;45.30;103950.53;1844103;77;25763;-58
2022/03/20 03:45:56;;;;;;;63.90;25.35;;;;;;;-3.31;45.34;103946.48;1845515;77;28301;-58
2022/03/20 03:48:24;;;;;;;64.32;24.85;;;;;;;-3.39;45.39;103960.36;1849210;77;25705;-57
2022/03/20 03:50:53;;;;;;;66.00;25.60;;;;;;;-3.44;45.41;103964.21;1845230;77;25820;-57
2022/03/20 03:53:20;;;;;;;58.30;24.07;;;;;;;-3.41;45.44;103968.65;1850631;77;25697;-58
2022/03/20 03:55:47;;;;;;;64.67;24.98;;;;;;;-3.35;45.56;103963.09;1847933;77;25781;-58
2022/03/20 03:58:14;;;;;;;60.17;27.10;;;;;;;-3.27;45.67;103954.47;1841111;77;27468;-58
2022/03/20 04:00:43;;;;;;;62.38;25.52;;;;;;;-3.20;45.55;103962.53;1851265;77;25646;-58
2022/03/20 04:03:11;;;;;;;61.48;26.30;;;;;;;-3.22;45.53;103958.97;1848567;77;25726;-58
2022/03/20 04:05:38;;;;;;;59.83;25.40;;;;;;;-3.22;45.36;103950.16;1846453;77;25752;-58
2022/03/20 04:08:09;;;;;;;70.95;26.00;;;;;;;-3.19;45.35;103962.09;1838931;77;25687;-58
2022/03/20 04:10:36;;;;;;;56.73;24.27;;;;;;;-3.15;45.36;103968.77;1846792;77;27600;-58
2022/03/20 04:13:04;;;;;;;62.33;26.40;;;;;;;-3.10;45.31;103966.23;1847827;77;26106;-58
2022/03/20 04:15:31;;;;;;;56.75;26.90;;;;;;;-3.07;45.34;103978.56;1848519;77;25743;-58
2022/03/20 04:18:00;;;;;;;56.13;24.40;;;;;;;-3.02;45.26;103972.53;1853057;77;26150;-58
2022/03/20 04:20:28;;;;;;;61.37;25.05;;;;;;;-2.97;45.14;103988.44;1823561;77;25712;-58
2022/03/20 04:25:41;;;;;;;65.35;25.95;;;;;;;-2.92;45.00;103981.53;1818343;78;25686;-58
2022/03/20 04:28:09;;;;;;;62.78;25.08;;;;;;;-2.95;44.78;103984.50;1825695;77;25456;-59
2022/03/20 04:30:37;;;;;;;55.28;23.73;;;;;;;-2.99;45.18;103988.83;1836994;76;25748;-57
2022/03/20 04:33:05;;;;;;;63.00;23.95;;;;;;;-3.03;45.17;103985.69;1825792;77;26321;-57
2022/03/20 04:35:32;;;;;;;68.12;24.60;;;;;;;-3.06;45.40;103977.30;1838706;77;27427;-57
2022/03/20 04:38:01;;;;;;;65.87;25.30;;;;;;;-3.08;46.02;103985.59;1832159;77;27244;-59
2022/03/20 04:40:28;;;;;;;56.88;23.12;;;;;;;-3.16;45.93;103972.25;1827260;77;25638;-58
2022/03/20 04:42:55;;;;;;;68.25;24.07;;;;;;;-3.16;46.06;103953.82;1835882;77;26412;-57
2022/03/20 04:45:22;;;;;;;69.42;27.85;;;;;;;-3.17;46.24;103951.16;1833430;77;26522;-58
2022/03/20 04:58:51;;;;;;;65.00;25.23;;;;;;;-3.22;46.92;103964.65;1813906;78;26335;-58
2022/03/20 05:01:18;;;;;;;61.80;25.57;;;;;;;-3.25;46.63;103964.61;1825950;77;27496;-58
2022/03/20 05:03:47;;;;;;;54.95;24.37;;;;;;;-3.27;46.51;103972.45;1838280;77;25968;-57
2022/03/20 05:06:14;;;;;;;64.95;25.45;;;;;;;-3.25;46.29;103967.23;1822427;77;25709;-58
2022/03/20 05:08:40;;;;;;;59.40;23.92;;;;;;;-3.23;46.15;103962.45;1833446;77;25697;-58
2022/03/20 05:13:55;;;;;;;60.48;26.02;;;;;;;-3.17;46.07;103973.11;1830314;77;27482;-57
2022/03/20 05:16:21;;;;;;;53.13;23.80;;;;;;;-3.11;45.84;103974.98;1838960;77;25755;-57
2022/03/20 05:18:49;;;;;;;58.20;24.02;;;;;;;-3.10;45.71;103975.89;1835064;77;25474;-57
2022/03/20 05:21:17;;;;;;;61.00;22.85;;;;;;;-3.08;45.57;103981.64;1847982;77;25797;-57
2022/03/20 05:23:44;;;;;;;49.30;22.77;;;;;;;-3.00;45.53;103989.68;1846786;76;25638;-58
2022/03/20 05:26:10;;;;;;;60.50;24.27;;;;;;;-2.95;45.20;104001.63;1841684;77;27468;-58
2022/03/20 05:28:37;;;;;;;51.45;22.80;;;;;;;-3.03;45.12;103986.56;1840136;77;25686;-58
2022/03/20 05:31:04;;;;;;;56.40;24.07;;;;;;;-3.02;45.44;103975.61;1839639;77;25754;-59
2022/03/20 05:33:32;;;;;;;55.55;22.67;;;;;;;-3.00;45.20;103971.23;1839848;77;25692;-58
2022/03/20 05:36:00;;;;;;;60.28;23.87;;;;;;;-2.94;45.29;103970.06;1846784;77;25932;-59
2022/03/20 05:38:29;;;;;;;55.80;23.70;;;;;;;-2.89;45.45;103971.47;1845032;77;27451;-59
2022/03/20 05:41:45;;;;;;;56.20;24.20;;;;;;;-2.89;45.17;103974.11;1843737;77;25777;-58
2022/03/20 05:43:24;;;;;;;63.90;24.35;;;;;;;-2.91;45.07;103968.78;1831909;77;25732;-58
2022/03/20 05:45:51;;;;;;;54.05;24.18;;;;;;;-2.84;45.20;103965.44;1846564;77;25725;-58
2022/03/20 05:48:19;;;;;;;58.25;23.98;;;;;;;-2.75;45.11;103967.34;1846987;77;25629;-59
2022/03/20 05:50:46;;;;;;;64.72;25.48;;;;;;;-2.61;45.11;103971.55;1835899;77;27464;-58
2022/03/20 05:53:13;;;;;;;47.40;22.48;;;;;;;-2.50;44.97;103977.02;1833271;77;26092;-58
2022/03/20 05:58:25;;;;;;;59.10;23.40;;;;;;;-2.17;44.69;103975.84;1835638;77;25726;-58
2022/03/20 06:00:55;;;;;;;49.48;22.77;;;;;;;-1.98;44.38;103974.81;1841516;77;25678;-58
2022/03/20 06:03:22;;;;;;;54.55;25.88;;;;;;;-1.91;43.74;103983.28;1847953;77;27412;-58
2022/03/20 06:05:49;;;;;;;48.20;22.20;;;;;;;-1.89;43.68;103994.76;1841663;77;25746;-58
2022/03/20 06:08:15;;;;;;;54.05;24.63;;;;;;;-1.87;43.34;103993.45;1840940;77;25759;-58
2022/03/20 06:10:43;;;;;;;53.60;23.45;;;;;;;-1.91;43.15;104001.75;1846428;77;25894;-58
2022/03/20 06:13:10;;;;;;;53.55;25.27;;;;;;;-1.98;43.24;104000.77;1845974;77;25747;-58
2022/03/20 06:15:38;;;;;;;57.90;25.70;;;;;;;-1.97;43.46;103989.79;1841154;77;27476;-58
2022/03/20 06:18:05;;;;;;;53.42;23.67;;;;;;;-1.92;43.35;103990.29;1841851;77;25566;-57
2022/03/20 06:20:35;;;;;;;67.45;25.45;;;;;;;-1.90;42.90;103993.85;1846229;77;25752;-57
2022/03/20 06:23:03;;;;;;;56.60;26.00;;;;;;;-1.95;43.09;103992.91;1851308;77;25703;-58
2022/03/20 06:25:30;;;;;;;56.55;22.70;;;;;;;-1.94;43.20;103991.14;1844770;77;25696;-58
2022/03/20 06:28:00;;;;;;;57.43;25.35;;;;;;;-1.90;43.02;103994.30;1853834;77;27632;-58
2022/03/20 06:30:27;;;;;;;48.63;22.30;;;;;;;-1.83;42.85;103998.80;1846098;77;25296;-58
2022/03/20 06:32:56;;;;;;;53.60;22.82;;;;;;;-1.72;42.67;103988.84;1850753;77;25737;-59
2022/03/20 06:35:23;;;;;;;53.85;25.15;;;;;;;-1.65;42.36;103992.02;1853153;77;26510;-57
2022/03/20 06:37:53;;;;;;;60.70;25.17;;;;;;;-1.65;42.36;103983.66;1846446;77;25913;-57
2022/03/20 06:40:20;;;;;;;47.58;23.32;;;;;;;-1.57;42.42;103985.97;1849638;77;27610;-61
2022/03/20 06:42:47;;;;;;;57.23;26.90;;;;;;;-1.45;42.23;103980.00;1848672;77;26140;-57
2022/03/20 06:45:15;;;;;;;51.58;24.85;;;;;;;-1.39;42.32;103984.45;1845831;77;25709;-58
2022/03/20 06:47:44;;;;;;;58.95;27.05;;;;;;;-1.30;42.26;103980.61;1851237;77;26113;-59
2022/03/20 06:50:14;;;;;;;56.30;24.25;;;;;;;-1.20;42.25;103978.09;1853936;77;25752;-58
2022/03/20 06:52:41;;;;;;;73.83;27.37;;;;;;;-1.15;41.95;103976.41;1845797;77;27527;-59
2022/03/20 06:55:12;;;;;;;57.53;25.95;;;;;;;-1.10;42.04;103981.30;1849547;77;25808;-59
2022/03/20 06:57:45;;;;;;;64.22;26.10;;;;;;;-1.09;41.81;103979.12;1841849;77;25504;-59
2022/03/20 07:00:16;;;;;;;53.63;25.52;;;;;;;-1.01;41.94;103981.41;1851573;77;25756;-57
2022/03/20 07:02:44;;;;;;;57.10;25.25;;;;;;;-0.91;41.73;103977.14;1846300;77;25788;-57
2022/03/20 07:05:11;;;;;;;58.28;25.75;;;;;;;-0.80;41.83;103985.18;1853187;77;27421;-56
2022/03/20 07:07:40;;;;;;;58.90;25.88;;;;;;;-0.71;41.48;103981.31;1848425;77;25832;-58
2022/03/20 07:10:09;;;;;;;48.13;24.40;;;;;;;-0.60;41.61;103975.25;1845216;77;25742;-58
2022/03/20 07:12:35;;;;;;;55.92;25.52;;;;;;;-0.44;41.45;103975.84;1845862;77;25776;-58
2022/03/20 07:15:02;;;;;;;60.08;25.75;;;;;;;-0.32;41.15;103973.75;1847494;77;25836;-58
2022/03/20 07:17:29;;;;;;;73.05;26.95;;;;;;;-0.23;40.94;103968.98;1851291;77;27469;-58
2022/03/20 07:19:58;;;;;;;58.65;26.42;;;;;;;-0.06;41.03;103965.13;1843840;77;25772;-58
2022/03/20 07:22:26;;;;;;;61.55;27.22;;;;;;;0.10;40.86;103968.33;1836015;77;25713;-58
2022/03/20 07:24:54;;;;;;;64.62;27.42;;;;;;;0.22;40.55;103967.55;1838546;77;25765;-57
2022/03/20 07:30:07;;;;;;;55.33;24.92;;;;;;;0.41;39.99;103963.24;1837631;77;28776;-58
2022/03/20 07:32:34;;;;;;;52.78;26.05;;;;;;;0.60;39.82;103966.86;1838929;77;25896;-58
2022/03/20 07:35:01;;;;;;;58.65;27.20;;;;;;;0.71;39.93;103959.41;1843139;77;25792;-58
2022/03/20 07:37:29;;;;;;;54.90;26.10;;;;;;;0.85;39.66;103960.79;1843198;77;25607;-58
2022/03/20 07:39:56;;;;;;;49.33;24.23;;;;;;;0.98;39.51;103959.97;1837785;77;25744;-58
2022/03/20 07:42:26;;;;;;;50.23;26.20;;;;;;;1.11;39.28;103959.98;1839243;77;27377;-58
2022/03/20 07:44:52;;;;;;;58.45;26.15;;;;;;;1.20;39.05;103959.58;1843208;77;25783;-57
2022/03/20 07:47:24;;;;;;;57.53;26.30;;;;;;;1.21;38.95;103962.65;1839346;77;25721;-57
2022/03/20 07:49:53;;;;;;;60.00;24.75;;;;;;;1.34;38.86;103961.36;1835763;77;25772;-57
2022/03/20 07:52:22;;;;;;;51.13;23.62;;;;;;;1.46;38.95;103961.39;1807498;77;25835;-58
2022/03/20 07:54:50;;;;;;;54.53;23.73;;;;;;;1.65;38.59;103957.42;1839308;77;27466;-58
2022/03/20 07:57:19;;;;;;;55.35;26.33;;;;;;;1.65;38.09;103956.09;1838292;77;25745;-58
2022/03/20 07:59:48;;;;;;;61.20;25.90;;;;;;;1.65;38.09;103947.68;1834853;77;25678;-57
2022/03/20 08:02:15;;;;;;;52.20;22.52;;;;;;;1.69;37.93;103944.58;1835457;77;25704;-59
2022/03/20 08:04:42;;;;;;;52.15;24.00;;;;;;;1.85;37.94;103958.28;1836542;77;25705;-58
2022/03/20 08:07:10;;;;;;;62.55;25.50;;;;;;;2.02;37.75;103946.33;1836337;77;28445;-57
2022/03/20 08:09:37;;;;;;;55.75;23.25;;;;;;;2.12;37.38;103952.96;1836769;77;25741;-58
2022/03/20 08:12:07;;;;;;;55.12;26.90;;;;;;;2.23;37.46;103947.61;1836056;77;25672;-58
2022/03/20 08:14:36;;;;;;;51.10;23.45;;;;;;;2.42;37.15;103925.42;1841264;77;25706;-58
2022/03/20 08:17:06;;;;;;;53.20;22.62;;;;;;;2.60;37.06;103924.91;1841166;77;25676;-58
2022/03/20 08:19:33;;;;;;;56.08;24.35;;;;;;;2.74;36.74;103923.06;1837805;77;28342;-57
2022/03/20 08:22:03;;;;;;;51.65;22.73;;;;;;;2.84;36.21;103920.36;1841007;77;25799;-58
2022/03/20 08:24:29;;;;;;;48.25;21.90;;;;;;;2.99;36.24;103918.97;1839674;77;25444;-57
2022/03/20 08:26:57;;;;;;;47.35;23.60;;;;;;;3.19;36.38;103905.95;1839932;77;25752;-58
2022/03/20 08:29:24;;;;;;;44.95;21.65;;;;;;;3.40;35.94;103899.16;1844038;77;25775;-58
2022/03/20 08:31:54;;;;;;;48.33;21.60;;;;;;;3.63;35.71;103899.39;1844784;77;27473;-59
2022/03/20 08:34:20;;;;;;;44.15;20.45;;;;;;;3.84;35.60;103889.45;1845205;77;25457;-58
2022/03/20 08:36:47;;;;;;;49.85;20.90;;;;;;;4.05;35.13;103883.91;1849006;77;26052;-57
2022/03/20 08:39:14;;;;;;;42.90;21.77;;;;;;;4.28;33.85;103878.75;1853446;77;25682;-58
2022/03/20 08:41:43;;;;;;;46.63;21.77;;;;;;;4.47;33.71;103877.19;1846970;77;25756;-58
2022/03/20 08:44:09;;;;;;;39.45;20.48;;;;;;;4.65;32.94;103875.61;1851689;77;28451;-58
2022/03/20 08:46:37;;;;;;;42.00;21.12;;;;;;;4.82;32.62;103867.82;1848178;77;25686;-58
2022/03/20 08:49:07;;;;;;;40.15;20.37;;;;;;;5.04;32.97;103862.17;1849666;77;25452;-58
2022/03/20 08:51:35;;;;;;;42.75;22.32;;;;;;;5.25;31.61;103859.14;1838427;77;26299;-59
2022/03/20 08:54:03;;;;;;;43.48;19.32;;;;;;;5.46;31.61;103849.92;1817143;77;25753;-58
2022/03/20 08:56:30;;;;;;;44.05;19.67;;;;;;;5.75;31.82;103841.80;1811381;77;28441;-58
2022/03/20 08:58:58;;;;;;;35.10;17.82;;;;;;;6.08;32.26;103844.78;1855022;77;25725;-57
2022/03/20 09:01:25;;;;;;;33.45;14.80;;;;;;;6.38;30.61;103837.01;1851105;77;25726;-57
2022/03/20 09:03:53;;;;;;;31.25;16.77;;;;;;;6.69;28.55;103836.34;1834551;77;26193;-57
2022/03/20 09:06:21;;;;;;;40.40;18.48;;;;;;;6.89;28.05;103835.86;1844230;77;25806;-57
2022/03/20 09:08:51;;;;;;;40.78;16.10;;;;;;;7.19;28.89;103831.12;1822539;77;27363;-59
2022/03/20 09:11:18;;;;;;;34.20;16.60;;;;;;;7.50;27.88;103816.95;1848271;77;25467;-58
2022/03/20 09:13:46;;;;;;;33.35;15.83;;;;;;;7.77;28.14;103823.34;1844388;77;25747;-58
2022/03/20 09:19:02;;;;;;;29.02;15.65;;;;;;;8.35;27.32;103812.30;1845422;77;25850;-58
2022/03/20 09:21:32;;;;;;;33.83;16.97;;;;;;;8.59;26.27;103808.02;1840980;77;27515;-58
2022/03/20 09:24:00;;;;;;;31.93;14.40;;;;;;;8.96;26.54;103817.58;1835196;77;25690;-57
2022/03/20 09:26:28;;;;;;;27.67;13.95;;;;;;;9.32;26.31;103804.31;1809823;78;26301;-56
2022/03/20 09:28:56;;;;;;;25.02;12.25;;;;;;;9.83;26.47;103803.36;1761513;80;26439;-57
2022/03/20 09:31:24;;;;;;;27.13;11.18;;;;;;;10.44;25.25;103794.38;1761357;81;25793;-58
2022/03/20 09:33:51;;;;;;;24.25;12.63;;;;;;;11.10;24.60;103788.08;1761321;81;27477;-58
2022/03/20 09:36:19;;;;;;;24.12;11.50;;;;;;;11.80;23.95;103780.98;1761203;81;25763;-57
2022/03/20 09:38:46;;;;;;;20.35;9.18;;;;;;;12.45;23.37;103775.28;1761526;81;25732;-58
2022/03/20 09:41:13;;;;;;;23.77;10.93;;;;;;;12.97;23.21;103774.48;1752882;81;26434;-59
2022/03/20 09:43:44;;;;;;;24.47;12.90;;;;;;;13.52;22.31;103765.37;1753087;81;25824;-58
2022/03/20 09:46:11;;;;;;;22.85;12.98;;;;;;;13.78;21.42;103768.00;1753125;81;27546;-60
2022/03/20 09:48:39;;;;;;;27.85;14.30;;;;;;;14.05;22.49;103756.61;1752746;81;27296;-58
2022/03/20 09:51:06;;;;;;;20.37;11.73;;;;;;;14.25;22.30;103758.19;1753118;81;25761;-56
2022/03/20 09:53:33;;;;;;;34.33;12.20;;;;;;;14.15;20.43;103743.45;1752817;81;27608;-57
2022/03/20 09:56:05;;;;;;;24.45;12.37;;;;;;;14.08;20.28;103746.08;1753239;81;25745;-57
2022/03/20 09:58:31;;;;;;;30.17;13.13;;;;;;;14.25;20.98;103735.66;1771443;79;27566;-57
2022/03/20 10:00:58;;;;;;;23.25;12.80;;;;;;;14.63;20.66;103723.09;1783909;80;25789;-57
2022/03/20 10:03:26;;;;;;;25.97;12.30;;;;;;;15.16;20.74;103726.76;1783884;79;25654;-57
2022/03/20 10:06:15;;;;;;;21.60;12.88;;;;;;;15.83;18.50;103727.54;1784048;80;26040;-59
2022/03/20 10:08:38;;;;;;;23.83;12.43;;;;;;;16.08;19.41;103720.08;1782948;80;25741;-57
2022/03/20 10:11:16;;;;;;;23.77;12.15;;;;;;;16.69;18.78;103718.80;1783901;79;27497;-57
2022/03/20 10:14:20;;;;;;;93.58;14.70;;;;;;;17.35;18.23;103707.91;1783647;80;25781;-58
2022/03/20 10:16:51;;;;;;;;;;;;;;;17.84;16.18;103710.30;1786504;80;25662;-58
2022/03/20 10:19:27;;;;;;;19.55;10.85;;;;;;;17.36;16.92;103697.41;1783202;80;25723;-58
2022/03/20 10:21:59;;;;;;;31.40;9.60;;;;;;;16.79;17.35;103704.08;1791541;80;25871;-58
2022/03/20 10:24:29;;;;;;;20.02;8.80;;;;;;;15.69;17.23;103706.71;1793028;79;28817;-58
2022/03/20 10:27:04;;;;;;;18.92;10.98;;;;;;;15.92;17.23;103705.77;1793602;80;25537;-58
2022/03/20 10:29:34;;;;;;;12.63;8.50;;;;;;;16.25;18.12;103702.68;1790519;80;25670;-58
2022/03/20 10:32:08;;;;;;;17.82;7.78;;;;;;;17.10;17.18;103694.70;1761448;81;25823;-57
2022/03/20 10:34:56;;;;;;;15.80;6.78;;;;;;;17.74;15.95;103688.33;1761346;81;25758;-58
2022/03/20 10:37:44;;;;;;;20.37;7.20;;;;;;;18.11;15.67;103679.30;1761198;81;27423;-58
2022/03/20 10:40:16;;;;;;;13.03;6.12;;;;;;;18.35;15.94;103671.13;1761374;81;25830;-58
2022/03/20 10:43:06;;;;;;;9.65;6.00;;;;;;;18.73;16.32;103672.77;1760111;81;25786;-58
2022/03/20 10:46:01;;;;;;;24.00;7.17;;;;;;;19.33;14.58;103671.79;1781406;80;25632;-57
2022/03/20 10:48:36;;;;;;;27.35;7.12;;;;;;;19.28;14.77;103662.61;1777228;80;25726;-58
2022/03/20 10:51:05;;;;;;;17.07;6.42;;;;;;;19.22;14.88;103671.30;1785111;80;27623;-57
2022/03/20 10:53:31;;;;;;;21.62;7.00;;;;;;;19.32;14.62;103659.98;1793940;80;25794;-57
2022/03/20 10:56:08;;;;;;;22.37;7.30;;;;;;;19.42;14.15;103656.51;1793476;80;25734;-58
2022/03/20 10:58:40;;;;;;;24.40;8.45;;;;;;;19.22;14.40;103648.09;1783604;79;26337;-59
2022/03/20 11:01:09;;;;;;;13.58;6.30;;;;;;;19.22;13.73;103640.77;1762493;81;25798;-58
2022/03/20 11:03:38;;;;;;;18.40;6.28;;;;;;;19.03;14.53;103641.86;1762644;81;28302;-59
2022/03/20 11:06:11;;;;;;;15.80;5.97;;;;;;;19.29;14.32;103641.62;1755484;81;26065;-58
2022/03/20 11:08:38;;;;;;;20.62;7.53;;;;;;;19.35;14.66;103634.33;1747628;82;25601;-59
2022/03/20 11:11:06;;;;;;;21.23;6.70;;;;;;;19.83;14.58;103627.67;1786836;80;25524;-59
2022/03/20 11:13:40;;;;;;;16.60;7.10;;;;;;;20.16;13.71;103625.85;1755558;81;25810;-59
2022/03/20 11:16:08;;;;;;;24.98;6.67;;;;;;;20.28;13.61;103634.87;1747251;82;27486;-59
2022/03/20 11:18:39;;;;;;;10.23;5.85;;;;;;;20.23;13.24;103628.94;1759521;81;25786;-59
2022/03/20 11:21:08;;;;;;;24.50;6.85;;;;;;;19.81;14.01;103618.22;1774225;79;25830;-59
2022/03/20 11:23:36;;;;;;;13.75;6.70;;;;;;;20.15;14.13;103612.70;1785675;80;25485;-59
2022/03/20 11:26:06;;;;;;;12.98;5.42;;;;;;;20.10;13.76;103608.62;1789752;80;25733;-59
2022/03/20 11:28:43;;;;;;;12.63;6.10;;;;;;;19.88;13.94;103606.84;1791886;78;27462;-58
2022/03/20 11:31:14;;;;;;;11.28;5.80;;;;;;;19.78;13.98;103614.40;1790433;78;25816;-58
2022/03/20 11:33:43;;;;;;;30.72;6.58;;;;;;;19.49;13.96;103603.17;1796077;78;25669;-58
2022/03/20 11:36:12;;;;;;;40.20;7.37;;;;;;;19.30;13.62;103603.31;1790793;78;26036;-58
2022/03/20 11:38:40;;;;;;;9.78;5.72;;;;;;;19.02;13.87;103586.45;1790566;78;25927;-58
2022/03/20 11:41:20;;;;;;;19.60;6.17;;;;;;;18.32;14.05;103594.20;1803347;79;28172;-58
2022/03/20 11:44:20;;;;;;;39.42;7.03;;;;;;;18.08;14.89;103587.80;1802808;79;25914;-57
2022/03/20 11:47:07;;;;;;;18.77;6.50;;;;;;;18.13;14.30;103584.72;1766685;79;25635;-57